sensor_id;sensor_type;location;lat;lon;timestamp;pressure;altitude;pressure_sealevel;temperature;humidity
55679;BME280;41573;51.446;-2.018;2023-03-18T08:29:05;92587.00;;;10.30;100.00
55679;BME280;41573;51.446;-2.018;2023-03-18T08:31:31;92596.03;;;10.34;100.00
55679;BME280;41573;51.446;-2.018;2023-03-18T08:33:56;92649.97;;;10.35;100.00
55679;BME280;41573;51.446;-2.018;2023-03-18T08:36:23;92688.66;;;10.41;100.00
55679;BME280;41573;51.446;-2.018;2023-03-18T08:38:49;92732.69;;;10.47;100.00
55679;BME280;41573;51.446;-2.018;2023-03-18T08:41:15;92788.34;;;10.39;100.00
55679;BME280;41573;51.446;-2.018;2023-03-18T08:43:41;92852.97;;;10.29;100.00
55679;BME280;41573;51.446;-2.018;2023-03-18T08:46:06;92882.00;;;10.20;100.00
55679;BME280;41573;51.446;-2.018;2023-03-18T08:48:32;92933.31;;;10.15;100.00
55679;BME280;41573;51.446;-2.018;2023-03-18T08:51:02;92959.31;;;10.18;100.00
55679;BME280;41573;51.446;-2.018;2023-03-18T08:53:29;92975.25;;;10.18;100.00
55679;BME280;41573;51.446;-2.018;2023-03-18T08:55:54;93015.06;;;10.24;100.00
55679;BME280;41573;51.446;-2.018;2023-03-18T08:58:20;93002.84;;;10.23;100.00
55679;BME280;41573;51.446;-2.018;2023-03-18T09:00:45;93035.84;;;10.16;100.00
55679;BME280;41573;51.446;-2.018;2023-03-18T09:03:12;93052.28;;;10.18;100.00
55679;BME280;41573;51.446;-2.018;2023-03-18T09:05:37;93076.16;;;10.24;100.00
55679;BME280;41573;51.446;-2.018;2023-03-18T09:08:04;93066.31;;;10.29;100.00
55679;BME280;41573;51.446;-2.018;2023-03-18T09:10:30;93075.00;;;10.45;100.00
55679;BME280;41573;51.446;-2.018;2023-03-18T09:12:56;93068.34;;;10.48;100.00
55679;BME280;41573;51.446;-2.018;2023-03-18T09:15:21;93099.38;;;10.58;100.00
55679;BME280;41573;51.446;-2.018;2023-03-18T09:17:47;93136.56;;;10.63;100.00
55679;BME280;41573;51.446;-2.018;2023-03-18T09:20:16;93119.28;;;10.60;100.00
55679;BME280;41573;51.446;-2.018;2023-03-18T09:22:45;93132.56;;;10.65;100.00
55679;BME280;41573;51.446;-2.018;2023-03-18T09:25:11;93130.94;;;10.69;100.00
55679;BME280;41573;51.446;-2.018;2023-03-18T09:27:36;93131.53;;;10.61;100.00
55679;BME280;41573;51.446;-2.018;2023-03-18T09:30:02;93145.34;;;10.63;100.00
55679;BME280;41573;51.446;-2.018;2023-03-18T09:32:29;93135.78;;;10.57;100.00
55679;BME280;41573;51.446;-2.018;2023-03-18T09:34:54;93119.06;;;10.51;100.00
55679;BME280;41573;51.446;-2.018;2023-03-18T09:37:20;93069.63;;;10.56;100.00
55679;BME280;41573;51.446;-2.018;2023-03-18T09:39:46;93061.84;;;10.64;100.00
55679;BME280;41573;51.446;-2.018;2023-03-18T09:44:41;93028.03;;;10.70;100.00
55679;BME280;41573;51.446;-2.018;2023-03-18T09:47:29;93015.03;;;10.68;100.00
55679;BME280;41573;51.446;-2.018;2023-03-18T09:53:26;92954.59;;;10.79;100.00
55679;BME280;41573;51.446;-2.018;2023-03-18T09:55:52;92929.66;;;10.99;100.00
55679;BME280;41573;51.446;-2.018;2023-03-18T10:01:22;92817.13;;;11.23;100.00
55679;BME280;41573;51.446;-2.018;2023-03-18T10:04:16;92763.53;;;11.30;100.00
55679;BME280;41573;51.446;-2.018;2023-03-18T10:06:43;92750.38;;;11.38;100.00
55679;BME280;41573;51.446;-2.018;2023-03-18T10:09:27;92791.22;;;11.48;100.00
55679;BME280;41573;51.446;-2.018;2023-03-18T10:18:04;93016.84;;;11.56;100.00
55679;BME280;41573;51.446;-2.018;2023-03-18T10:23:45;93242.59;;;11.54;100.00
55679;BME280;41573;51.446;-2.018;2023-03-18T10:26:30;93304.53;;;11.70;100.00
55679;BME280;41573;51.446;-2.018;2023-03-18T10:39:52;93508.28;;;12.22;100.00
55679;BME280;41573;51.446;-2.018;2023-03-18T10:42:26;93597.09;;;12.13;100.00
55679;BME280;41573;51.446;-2.018;2023-03-18T10:44:57;93689.03;;;12.05;100.00
55679;BME280;41573;51.446;-2.018;2023-03-18T10:47:28;93780.69;;;11.88;100.00
55679;BME280;41573;51.446;-2.018;2023-03-18T10:50:24;93823.31;;;11.78;100.00
55679;BME280;41573;51.446;-2.018;2023-03-18T10:53:30;93844.06;;;11.71;100.00
55679;BME280;41573;51.446;-2.018;2023-03-18T10:56:10;93863.25;;;11.63;100.00
55679;BME280;41573;51.446;-2.018;2023-03-18T10:58:38;93887.78;;;11.70;100.00
55679;BME280;41573;51.446;-2.018;2023-03-18T11:01:06;93908.81;;;11.71;100.00
55679;BME280;41573;51.446;-2.018;2023-03-18T11:03:34;93936.22;;;11.72;100.00
55679;BME280;41573;51.446;-2.018;2023-03-18T11:06:02;93960.22;;;11.77;100.00
55679;BME280;41573;51.446;-2.018;2023-03-18T11:11:14;93955.44;;;11.74;100.00
55679;BME280;41573;51.446;-2.018;2023-03-18T11:14:06;93963.66;;;11.67;100.00
55679;BME280;41573;51.446;-2.018;2023-03-18T11:16:38;94003.53;;;11.52;100.00
55679;BME280;41573;51.446;-2.018;2023-03-18T11:19:22;94044.22;;;11.42;100.00
55679;BME280;41573;51.446;-2.018;2023-03-18T11:21:58;94042.59;;;11.36;100.00
55679;BME280;41573;51.446;-2.018;2023-03-18T11:24:27;94034.63;;;11.36;100.00
55679;BME280;41573;51.446;-2.018;2023-03-18T11:27:24;94004.78;;;11.34;100.00
55679;BME280;41573;51.446;-2.018;2023-03-18T11:30:08;93988.06;;;11.38;100.00
55679;BME280;41573;51.446;-2.018;2023-03-18T11:32:35;93989.91;;;11.38;100.00
55679;BME280;41573;51.446;-2.018;2023-03-18T11:35:05;94011.19;;;11.38;100.00
55679;BME280;41573;51.446;-2.018;2023-03-18T11:37:35;94015.50;;;11.44;100.00
55679;BME280;41573;51.446;-2.018;2023-03-18T11:40:14;94056.00;;;11.56;100.00
55679;BME280;41573;51.446;-2.018;2023-03-18T11:42:44;94061.69;;;11.70;100.00
55679;BME280;41573;51.446;-2.018;2023-03-18T11:47:54;94173.78;;;12.06;100.00
55679;BME280;41573;51.446;-2.018;2023-03-18T11:50:21;94266.34;;;12.21;100.00
55679;BME280;41573;51.446;-2.018;2023-03-18T11:53:20;94340.28;;;12.36;100.00
55679;BME280;41573;51.446;-2.018;2023-03-18T11:56:00;94413.66;;;12.39;100.00
55679;BME280;41573;51.446;-2.018;2023-03-18T12:01:16;94530.28;;;12.49;100.00
55679;BME280;41573;51.446;-2.018;2023-03-18T12:04:12;94476.44;;;12.89;100.00
55679;BME280;41573;51.446;-2.018;2023-03-18T12:09:28;94660.34;;;13.93;100.00
55679;BME280;41573;51.446;-2.018;2023-03-18T12:14:47;95254.66;;;14.72;100.00
55679;BME280;41573;51.446;-2.018;2023-03-18T12:26:07;97085.25;;;15.79;100.00
55679;BME280;41573;51.446;-2.018;2023-03-18T12:33:56;97432.69;;;15.48;100.00
55679;BME280;41573;51.446;-2.018;2023-03-18T12:36:48;97420.19;;;15.20;100.00
55679;BME280;41573;51.446;-2.018;2023-03-18T12:39:37;97175.81;;;14.96;100.00
55679;BME280;41573;51.446;-2.018;2023-03-18T12:42:17;96892.25;;;14.93;100.00
55679;BME280;41573;51.446;-2.018;2023-03-18T12:45:00;96802.59;;;15.03;100.00
55679;BME280;41573;51.446;-2.018;2023-03-18T12:47:51;97037.34;;;14.97;100.00
55679;BME280;41573;51.446;-2.018;2023-03-18T12:53:36;97175.00;;;14.96;100.00
55679;BME280;41573;51.446;-2.018;2023-03-18T12:56:10;97260.94;;;14.94;100.00
55679;BME280;41573;51.446;-2.018;2023-03-18T12:58:42;97286.88;;;14.87;100.00
55679;BME280;41573;51.446;-2.018;2023-03-18T13:01:14;97271.44;;;14.82;100.00
55679;BME280;41573;51.446;-2.018;2023-03-18T13:06:23;97383.34;;;14.59;100.00
55679;BME280;41573;51.446;-2.018;2023-03-18T13:16:46;97082.78;;;13.75;100.00
55679;BME280;41573;51.446;-2.018;2023-03-18T13:19:12;96925.38;;;13.65;100.00
55679;BME280;41573;51.446;-2.018;2023-03-18T13:21:44;96795.41;;;13.57;100.00
55679;BME280;41573;51.446;-2.018;2023-03-18T13:24:36;96619.19;;;13.56;100.00
55679;BME280;41573;51.446;-2.018;2023-03-18T13:28:05;96530.78;;;13.57;100.00
55679;BME280;41573;51.446;-2.018;2023-03-18T13:30:44;96377.91;;;13.74;100.00
55679;BME280;41573;51.446;-2.018;2023-03-18T13:33:33;96239.16;;;14.09;100.00
55679;BME280;41573;51.446;-2.018;2023-03-18T13:42:26;96571.16;;;14.40;100.00
55679;BME280;41573;51.446;-2.018;2023-03-18T13:47:40;96853.00;;;13.87;100.00
55679;BME280;41573;51.446;-2.018;2023-03-18T13:52:44;96609.13;;;13.11;100.00
55679;BME280;41573;51.446;-2.018;2023-03-18T13:55:33;96169.63;;;12.51;100.00
55679;BME280;41573;51.446;-2.018;2023-03-18T13:59:02;95427.75;;;12.22;100.00
55679;BME280;41573;51.446;-2.018;2023-03-18T14:06:21;93923.56;;;12.46;100.00
55679;BME280;41573;51.446;-2.018;2023-03-18T14:08:49;93765.13;;;12.57;100.00
55679;BME280;41573;51.446;-2.018;2023-03-18T14:13:44;93671.63;;;12.83;100.00
55679;BME280;41573;51.446;-2.018;2023-03-18T14:16:16;93625.59;;;13.07;100.00
55679;BME280;41573;51.446;-2.018;2023-03-18T14:18:56;93583.72;;;13.37;100.00
55679;BME280;41573;51.446;-2.018;2023-03-18T14:21:25;93606.34;;;13.44;100.00
55679;BME280;41573;51.446;-2.018;2023-03-18T14:24:12;93652.56;;;13.45;100.00
55679;BME280;41573;51.446;-2.018;2023-03-18T14:27:07;93758.38;;;13.36;100.00
55679;BME280;41573;51.446;-2.018;2023-03-18T14:32:02;93871.00;;;14.57;100.00
55679;BME280;41573;51.446;-2.018;2023-03-18T14:34:33;94018.19;;;15.79;100.00
55679;BME280;41573;51.446;-2.018;2023-03-18T14:37:12;94389.81;;;15.60;100.00
55679;BME280;41573;51.446;-2.018;2023-03-18T14:39:42;94736.09;;;15.62;100.00
55679;BME280;41573;51.446;-2.018;2023-03-18T14:42:27;95257.94;;;15.51;100.00
55679;BME280;41573;51.446;-2.018;2023-03-18T14:44:58;95941.78;;;14.90;100.00
55679;BME280;41573;51.446;-2.018;2023-03-18T14:50:32;96293.72;;;13.83;100.00
55679;BME280;41573;51.446;-2.018;2023-03-18T14:58:37;96037.00;;;14.62;100.00
55679;BME280;41573;51.446;-2.018;2023-03-18T15:01:08;96209.34;;;14.80;100.00
55679;BME280;41573;51.446;-2.018;2023-03-18T15:03:37;96232.22;;;15.25;100.00
55679;BME280;41573;51.446;-2.018;2023-03-18T15:06:04;96347.91;;;15.22;100.00
55679;BME280;41573;51.446;-2.018;2023-03-18T15:08:34;96509.22;;;14.87;100.00
55679;BME280;41573;51.446;-2.018;2023-03-18T15:11:06;96540.38;;;14.49;100.00
55679;BME280;41573;51.446;-2.018;2023-03-18T15:13:40;96557.13;;;14.06;100.00
55679;BME280;41573;51.446;-2.018;2023-03-18T15:16:11;96546.09;;;13.89;100.00
55679;BME280;41573;51.446;-2.018;2023-03-18T15:18:38;96528.41;;;13.81;100.00
55679;BME280;41573;51.446;-2.018;2023-03-18T15:21:12;96520.81;;;13.78;100.00
55679;BME280;41573;51.446;-2.018;2023-03-18T15:23:44;96461.34;;;13.83;100.00
55679;BME280;41573;51.446;-2.018;2023-03-18T15:28:46;96436.00;;;13.92;100.00
55679;BME280;41573;51.446;-2.018;2023-03-18T15:31:23;96476.28;;;13.97;100.00
55679;BME280;41573;51.446;-2.018;2023-03-18T15:33:54;96472.34;;;14.06;100.00
55679;BME280;41573;51.446;-2.018;2023-03-18T15:36:27;96462.19;;;14.15;100.00
55679;BME280;41573;51.446;-2.018;2023-03-18T15:38:53;96493.25;;;14.16;100.00
55679;BME280;41573;51.446;-2.018;2023-03-18T15:41:19;96544.75;;;14.11;100.00
55679;BME280;41573;51.446;-2.018;2023-03-18T15:43:48;96613.50;;;14.04;100.00
55679;BME280;41573;51.446;-2.018;2023-03-18T15:46:24;96676.50;;;13.93;100.00
55679;BME280;41573;51.446;-2.018;2023-03-18T15:48:56;96716.41;;;13.88;100.00
55679;BME280;41573;51.446;-2.018;2023-03-18T15:51:41;96821.34;;;13.90;100.00
55679;BME280;41573;51.446;-2.018;2023-03-18T15:54:23;96917.25;;;14.20;100.00
55679;BME280;41573;51.446;-2.018;2023-03-18T15:56:52;97041.59;;;14.24;100.00
55679;BME280;41573;51.446;-2.018;2023-03-18T15:59:22;97153.38;;;14.29;100.00
55679;BME280;41573;51.446;-2.018;2023-03-18T16:01:48;97237.75;;;14.67;100.00
55679;BME280;41573;51.446;-2.018;2023-03-18T16:04:15;97345.97;;;14.44;100.00
55679;BME280;41573;51.446;-2.018;2023-03-18T16:06:42;97453.44;;;14.41;100.00
55679;BME280;41573;51.446;-2.018;2023-03-18T16:09:20;97529.09;;;14.28;100.00
55679;BME280;41573;51.446;-2.018;2023-03-18T16:11:50;97557.47;;;14.22;100.00
55679;BME280;41573;51.446;-2.018;2023-03-18T16:14:19;97572.78;;;14.28;100.00
55679;BME280;41573;51.446;-2.018;2023-03-18T16:16:46;97619.53;;;14.32;100.00
55679;BME280;41573;51.446;-2.018;2023-03-18T16:19:20;97684.78;;;14.46;100.00
55679;BME280;41573;51.446;-2.018;2023-03-18T16:21:49;97731.34;;;14.82;100.00
55679;BME280;41573;51.446;-2.018;2023-03-18T16:24:15;97788.50;;;15.04;100.00
55679;BME280;41573;51.446;-2.018;2023-03-18T16:26:41;97892.34;;;15.17;100.00
55679;BME280;41573;51.446;-2.018;2023-03-18T16:29:39;97961.13;;;14.80;100.00
55679;BME280;41573;51.446;-2.018;2023-03-18T16:32:08;97980.94;;;14.32;100.00
55679;BME280;41573;51.446;-2.018;2023-03-18T16:34:35;97959.19;;;13.89;100.00
55679;BME280;41573;51.446;-2.018;2023-03-18T16:37:01;97903.22;;;13.65;100.00
55679;BME280;41573;51.446;-2.018;2023-03-18T16:39:27;97863.13;;;13.33;100.00
55679;BME280;41573;51.446;-2.018;2023-03-18T16:41:59;97830.75;;;12.97;100.00
55679;BME280;41573;51.446;-2.018;2023-03-18T16:44:25;97787.41;;;12.86;100.00
55679;BME280;41573;51.446;-2.018;2023-03-18T16:46:53;97746.22;;;12.81;100.00
55679;BME280;41573;51.446;-2.018;2023-03-18T16:49:30;97712.09;;;12.91;100.00
55679;BME280;41573;51.446;-2.018;2023-03-18T16:51:57;97678.84;;;12.93;100.00
55679;BME280;41573;51.446;-2.018;2023-03-18T16:54:25;97701.56;;;13.13;100.00
55679;BME280;41573;51.446;-2.018;2023-03-18T16:56:54;97701.13;;;13.47;100.00
55679;BME280;41573;51.446;-2.018;2023-03-18T16:59:20;97724.16;;;13.86;100.00
55679;BME280;41573;51.446;-2.018;2023-03-18T17:01:46;97767.63;;;14.18;100.00
55679;BME280;41573;51.446;-2.018;2023-03-18T17:06:53;97929.59;;;13.68;100.00
55679;BME280;41573;51.446;-2.018;2023-03-18T17:09:18;97907.72;;;13.87;100.00
55679;BME280;41573;51.446;-2.018;2023-03-18T17:11:48;97909.94;;;14.22;100.00
55679;BME280;41573;51.446;-2.018;2023-03-18T17:16:46;98053.66;;;13.58;100.00
55679;BME280;41573;51.446;-2.018;2023-03-18T17:19:13;98048.63;;;12.99;100.00
55679;BME280;41573;51.446;-2.018;2023-03-18T17:21:40;97996.25;;;12.73;100.00
55679;BME280;41573;51.446;-2.018;2023-03-18T17:24:06;97963.09;;;12.51;100.00
55679;BME280;41573;51.446;-2.018;2023-03-18T17:26:31;97921.41;;;12.17;100.00
55679;BME280;41573;51.446;-2.018;2023-03-18T17:28:57;97862.72;;;12.01;100.00
55679;BME280;41573;51.446;-2.018;2023-03-18T17:31:23;97818.06;;;11.86;100.00
55679;BME280;41573;51.446;-2.018;2023-03-18T17:33:48;97767.06;;;11.81;100.00
55679;BME280;41573;51.446;-2.018;2023-03-18T17:36:14;97725.44;;;11.72;100.00
55679;BME280;41573;51.446;-2.018;2023-03-18T17:38:40;97688.28;;;11.70;100.00
55679;BME280;41573;51.446;-2.018;2023-03-18T17:41:26;97634.50;;;11.59;100.00
55679;BME280;41573;51.446;-2.018;2023-03-18T17:43:51;97619.69;;;11.56;100.00
55679;BME280;41573;51.446;-2.018;2023-03-18T17:46:16;97572.25;;;11.43;100.00
55679;BME280;41573;51.446;-2.018;2023-03-18T17:48:43;97569.59;;;11.35;100.00
55679;BME280;41573;51.446;-2.018;2023-03-18T17:51:17;97560.81;;;11.26;100.00
55679;BME280;41573;51.446;-2.018;2023-03-18T17:53:47;97537.38;;;11.21;100.00
55679;BME280;41573;51.446;-2.018;2023-03-18T17:56:15;97525.38;;;11.17;100.00
55679;BME280;41573;51.446;-2.018;2023-03-18T17:58:43;97508.72;;;11.24;100.00
55679;BME280;41573;51.446;-2.018;2023-03-18T18:01:15;97532.34;;;11.27;100.00
55679;BME280;41573;51.446;-2.018;2023-03-18T18:03:41;97570.34;;;11.12;100.00
55679;BME280;41573;51.446;-2.018;2023-03-18T18:06:16;97584.63;;;11.11;100.00
55679;BME280;41573;51.446;-2.018;2023-03-18T18:08:42;97610.63;;;11.01;100.00
55679;BME280;41573;51.446;-2.018;2023-03-18T18:14:31;97622.78;;;10.62;100.00
55679;BME280;41573;51.446;-2.018;2023-03-18T18:25:29;97548.88;;;10.23;100.00
55679;BME280;41573;51.446;-2.018;2023-03-18T18:27:54;97547.56;;;10.19;100.00
55679;BME280;41573;51.446;-2.018;2023-03-18T18:30:21;97525.78;;;10.15;100.00
55679;BME280;41573;51.446;-2.018;2023-03-18T18:32:48;97494.22;;;10.12;100.00
55679;BME280;41573;51.446;-2.018;2023-03-18T18:35:19;97472.41;;;10.09;100.00
55679;BME280;41573;51.446;-2.018;2023-03-18T18:37:46;97451.00;;;10.02;100.00
55679;BME280;41573;51.446;-2.018;2023-03-18T18:40:14;97407.63;;;10.01;100.00
55679;BME280;41573;51.446;-2.018;2023-03-18T18:42:41;97390.50;;;9.96;100.00
55679;BME280;41573;51.446;-2.018;2023-03-18T18:45:17;97371.25;;;9.94;100.00
55679;BME280;41573;51.446;-2.018;2023-03-18T18:47:43;97337.34;;;9.88;100.00
55679;BME280;41573;51.446;-2.018;2023-03-18T18:50:16;97323.91;;;9.81;100.00
55679;BME280;41573;51.446;-2.018;2023-03-18T18:52:42;97282.22;;;9.73;100.00
55679;BME280;41573;51.446;-2.018;2023-03-18T18:55:08;97266.97;;;9.67;100.00
55679;BME280;41573;51.446;-2.018;2023-03-18T18:57:37;97251.34;;;9.64;100.00
55679;BME280;41573;51.446;-2.018;2023-03-18T19:00:04;97231.09;;;9.55;100.00
55679;BME280;41573;51.446;-2.018;2023-03-18T19:02:36;97206.22;;;9.47;100.00
55679;BME280;41573;51.446;-2.018;2023-03-18T19:05:05;97190.09;;;9.49;100.00
55679;BME280;41573;51.446;-2.018;2023-03-18T19:07:32;97169.38;;;9.44;100.00
55679;BME280;41573;51.446;-2.018;2023-03-18T19:09:58;97151.94;;;9.42;100.00
55679;BME280;41573;51.446;-2.018;2023-03-18T19:12:25;97107.66;;;9.34;100.00
55679;BME280;41573;51.446;-2.018;2023-03-18T19:14:51;97101.50;;;9.34;100.00
55679;BME280;41573;51.446;-2.018;2023-03-18T19:17:18;97089.22;;;9.32;100.00
55679;BME280;41573;51.446;-2.018;2023-03-18T19:19:44;97091.03;;;9.32;100.00
55679;BME280;41573;51.446;-2.018;2023-03-18T19:22:12;97076.78;;;9.25;100.00
55679;BME280;41573;51.446;-2.018;2023-03-18T19:24:39;97072.47;;;9.24;100.00
55679;BME280;41573;51.446;-2.018;2023-03-18T19:27:26;97058.72;;;9.20;100.00
55679;BME280;41573;51.446;-2.018;2023-03-18T19:29:55;97036.97;;;9.17;100.00
55679;BME280;41573;51.446;-2.018;2023-03-18T19:32:22;97013.78;;;9.10;100.00
55679;BME280;41573;51.446;-2.018;2023-03-18T19:35:08;96982.91;;;9.09;100.00
55679;BME280;41573;51.446;-2.018;2023-03-18T19:37:34;96961.56;;;9.03;100.00
55679;BME280;41573;51.446;-2.018;2023-03-18T19:40:14;96953.09;;;8.99;100.00
55679;BME280;41573;51.446;-2.018;2023-03-18T19:42:43;96932.22;;;8.96;100.00
55679;BME280;41573;51.446;-2.018;2023-03-18T19:45:11;96912.34;;;8.92;100.00
55679;BME280;41573;51.446;-2.018;2023-03-18T19:47:37;96891.09;;;8.92;100.00
55679;BME280;41573;51.446;-2.018;2023-03-18T19:50:12;96863.75;;;8.91;100.00
55679;BME280;41573;51.446;-2.018;2023-03-18T19:52:38;96846.03;;;8.84;100.00
55679;BME280;41573;51.446;-2.018;2023-03-18T19:55:03;96830.28;;;8.82;100.00
55679;BME280;41573;51.446;-2.018;2023-03-18T19:57:32;96821.50;;;8.82;100.00
55679;BME280;41573;51.446;-2.018;2023-03-18T19:59:59;96799.34;;;8.74;100.00
55679;BME280;41573;51.446;-2.018;2023-03-18T20:02:33;96779.28;;;8.72;100.00
55679;BME280;41573;51.446;-2.018;2023-03-18T20:05:02;96781.13;;;8.71;100.00
55679;BME280;41573;51.446;-2.018;2023-03-18T20:07:30;96755.41;;;8.72;100.00
55679;BME280;41573;51.446;-2.018;2023-03-18T20:09:56;96728.69;;;8.73;100.00
55679;BME280;41573;51.446;-2.018;2023-03-18T20:12:32;96690.75;;;8.73;100.00
55679;BME280;41573;51.446;-2.018;2023-03-18T20:15:02;96638.44;;;8.82;100.00
55679;BME280;41573;51.446;-2.018;2023-03-18T20:17:32;96557.22;;;8.80;100.00
55679;BME280;41573;51.446;-2.018;2023-03-18T20:20:00;96507.63;;;8.81;100.00
55679;BME280;41573;51.446;-2.018;2023-03-18T20:22:30;96472.78;;;8.84;100.00
55679;BME280;41573;51.446;-2.018;2023-03-18T20:24:56;96428.69;;;8.83;100.00
55679;BME280;41573;51.446;-2.018;2023-03-18T20:27:22;96398.50;;;8.84;100.00
55679;BME280;41573;51.446;-2.018;2023-03-18T20:29:48;96392.09;;;8.78;100.00
55679;BME280;41573;51.446;-2.018;2023-03-18T20:32:13;96378.47;;;8.82;100.00
55679;BME280;41573;51.446;-2.018;2023-03-18T20:34:38;96321.13;;;8.80;100.00
55679;BME280;41573;51.446;-2.018;2023-03-18T20:37:31;96287.44;;;8.81;100.00
55679;BME280;41573;51.446;-2.018;2023-03-18T20:40:00;96255.97;;;8.78;100.00
55679;BME280;41573;51.446;-2.018;2023-03-18T20:42:26;96241.91;;;8.77;100.00
55679;BME280;41573;51.446;-2.018;2023-03-18T20:44:52;96227.56;;;8.72;100.00
55679;BME280;41573;51.446;-2.018;2023-03-18T20:47:18;96196.56;;;8.72;100.00
55679;BME280;41573;51.446;-2.018;2023-03-18T20:49:43;96176.97;;;8.73;100.00
55679;BME280;41573;51.446;-2.018;2023-03-18T20:52:28;96143.13;;;8.75;100.00
55679;BME280;41573;51.446;-2.018;2023-03-18T20:54:55;96139.03;;;8.73;100.00
55679;BME280;41573;51.446;-2.018;2023-03-18T20:57:21;96110.47;;;8.75;100.00
55679;BME280;41573;51.446;-2.018;2023-03-18T20:59:47;96100.88;;;8.74;100.00
55679;BME280;41573;51.446;-2.018;2023-03-18T21:02:27;96065.59;;;8.73;100.00
55679;BME280;41573;51.446;-2.018;2023-03-18T21:04:59;96066.84;;;8.77;100.00
55679;BME280;41573;51.446;-2.018;2023-03-18T21:07:26;96066.03;;;8.77;100.00
55679;BME280;41573;51.446;-2.018;2023-03-18T21:09:52;96044.63;;;8.78;100.00
55679;BME280;41573;51.446;-2.018;2023-03-18T21:12:20;96023.63;;;8.84;100.00
55679;BME280;41573;51.446;-2.018;2023-03-18T21:14:47;95995.13;;;8.92;100.00
55679;BME280;41573;51.446;-2.018;2023-03-18T21:17:17;95970.03;;;8.95;100.00
55679;BME280;41573;51.446;-2.018;2023-03-18T21:19:44;95956.75;;;8.95;100.00
55679;BME280;41573;51.446;-2.018;2023-03-18T21:22:14;95943.94;;;8.99;100.00
55679;BME280;41573;51.446;-2.018;2023-03-18T21:24:41;95925.78;;;9.02;100.00
55679;BME280;41573;51.446;-2.018;2023-03-18T21:27:16;95904.78;;;9.07;100.00
55679;BME280;41573;51.446;-2.018;2023-03-18T21:29:47;95880.91;;;9.07;100.00
55679;BME280;41573;51.446;-2.018;2023-03-18T21:35:21;95842.94;;;9.13;100.00
55679;BME280;41573;51.446;-2.018;2023-03-18T21:37:47;95821.72;;;9.13;100.00
55679;BME280;41573;51.446;-2.018;2023-03-18T21:40:19;95811.34;;;9.19;100.00
55679;BME280;41573;51.446;-2.018;2023-03-18T21:42:46;95782.13;;;9.19;100.00
55679;BME280;41573;51.446;-2.018;2023-03-18T21:45:17;95755.59;;;9.19;100.00
55679;BME280;41573;51.446;-2.018;2023-03-18T21:47:43;95733.34;;;9.20;100.00
55679;BME280;41573;51.446;-2.018;2023-03-18T21:50:35;95701.69;;;9.18;100.00
55679;BME280;41573;51.446;-2.018;2023-03-18T21:53:01;95699.25;;;9.23;100.00
55679;BME280;41573;51.446;-2.018;2023-03-18T21:55:26;95677.41;;;9.21;100.00
55679;BME280;41573;51.446;-2.018;2023-03-18T21:57:51;95654.94;;;9.24;100.00
55679;BME280;41573;51.446;-2.018;2023-03-18T22:00:18;95630.25;;;9.23;100.00
55679;BME280;41573;51.446;-2.018;2023-03-18T22:02:45;95613.09;;;9.26;100.00
55679;BME280;41573;51.446;-2.018;2023-03-18T22:05:14;95602.47;;;9.26;100.00
55679;BME280;41573;51.446;-2.018;2023-03-18T22:07:39;95552.66;;;9.28;100.00
55679;BME280;41573;51.446;-2.018;2023-03-18T22:10:06;95528.16;;;9.26;100.00
55679;BME280;41573;51.446;-2.018;2023-03-18T22:12:32;95506.94;;;9.19;100.00
55679;BME280;41573;51.446;-2.018;2023-03-18T22:14:59;95468.78;;;9.20;100.00
55679;BME280;41573;51.446;-2.018;2023-03-18T22:17:32;95447.75;;;9.19;100.00
55679;BME280;41573;51.446;-2.018;2023-03-18T22:20:00;95411.03;;;9.16;100.00
55679;BME280;41573;51.446;-2.018;2023-03-18T22:22:43;95333.47;;;9.13;100.00
55679;BME280;41573;51.446;-2.018;2023-03-18T22:27:49;95257.34;;;9.14;100.00
55679;BME280;41573;51.446;-2.018;2023-03-18T22:30:15;95239.13;;;9.18;100.00
55679;BME280;41573;51.446;-2.018;2023-03-18T22:32:41;95232.63;;;9.13;100.00
55679;BME280;41573;51.446;-2.018;2023-03-18T22:35:26;95170.94;;;8.93;100.00
55679;BME280;41573;51.446;-2.018;2023-03-18T22:37:52;95060.56;;;8.92;100.00
55679;BME280;41573;51.446;-2.018;2023-03-18T22:40:20;94938.56;;;8.92;100.00
55679;BME280;41573;51.446;-2.018;2023-03-18T22:42:48;94858.63;;;8.88;100.00
55679;BME280;41573;51.446;-2.018;2023-03-18T22:45:24;94779.28;;;8.87;100.00
55679;BME280;41573;51.446;-2.018;2023-03-18T22:47:51;94747.34;;;8.82;100.00
55679;BME280;41573;51.446;-2.018;2023-03-18T22:50:18;94701.53;;;8.74;100.00
55679;BME280;41573;51.446;-2.018;2023-03-18T22:52:44;94674.09;;;8.69;100.00
55679;BME280;41573;51.446;-2.018;2023-03-18T22:57:42;94557.53;;;8.62;100.00
55679;BME280;41573;51.446;-2.018;2023-03-18T23:00:37;94515.13;;;8.62;100.00
55679;BME280;41573;51.446;-2.018;2023-03-18T23:03:15;94423.63;;;8.59;100.00
55679;BME280;41573;51.446;-2.018;2023-03-18T23:05:45;94395.16;;;8.55;100.00
55679;BME280;41573;51.446;-2.018;2023-03-18T23:08:11;94365.41;;;8.53;100.00
55679;BME280;41573;51.446;-2.018;2023-03-18T23:10:36;94340.44;;;8.49;100.00
55679;BME280;41573;51.446;-2.018;2023-03-18T23:13:10;94345.75;;;8.49;100.00
55679;BME280;41573;51.446;-2.018;2023-03-18T23:15:37;94362.53;;;8.42;100.00
55679;BME280;41573;51.446;-2.018;2023-03-18T23:18:07;94393.28;;;8.43;100.00
55679;BME280;41573;51.446;-2.018;2023-03-18T23:20:33;94421.28;;;8.39;100.00
55679;BME280;41573;51.446;-2.018;2023-03-18T23:22:59;94449.41;;;8.40;100.00
55679;BME280;41573;51.446;-2.018;2023-03-18T23:25:25;94475.66;;;8.42;100.00
55679;BME280;41573;51.446;-2.018;2023-03-18T23:27:50;94512.16;;;8.40;100.00
55679;BME280;41573;51.446;-2.018;2023-03-18T23:30:16;94539.81;;;8.32;100.00
55679;BME280;41573;51.446;-2.018;2023-03-18T23:32:41;94578.31;;;8.35;100.00
55679;BME280;41573;51.446;-2.018;2023-03-18T23:35:07;94614.00;;;8.32;100.00
55679;BME280;41573;51.446;-2.018;2023-03-18T23:37:33;94642.78;;;8.28;100.00
55679;BME280;41573;51.446;-2.018;2023-03-18T23:39:59;94689.66;;;8.28;100.00